Midland, South Dakota
Current Conditions -  °F | °C
As of 7:53 PM on Sunday 23 Nov 2014 (Local Time) from KPIR Reporting Station
Overcast Overcast  
Wind Chill: 15°   Ceiling: 2700
Heat Index: 29°   Visibility: 10mi
Dew Point: 20°   Wind: 25mph
Humidity: 69%   Direction: 330°NNW
Pressure: 29.67"   Gusts: NA
Location:  44.07°N, 101.16°W
Report Text: KPIR 240253Z AUTO 33022KT 10SM OVC027 M02/M07 A2967 RMK AO2 PK WND 32031/0217 SLP061 T10171067 50003
Loading
Personal Weather Stations






























Interactive Weather Map New forecast layout! Learn more

10-Day Weather Forecast

Advertisements
Track Severe Weather on mobile